createdAt,value
2023-02-22T00:00:03.246Z,9.78
2023-02-22T00:02:37.155Z,9.72
2023-02-22T00:05:08.235Z,9.72
2023-02-22T00:07:38.207Z,9.73
2023-02-22T00:10:13.547Z,9.73
2023-02-22T00:12:46.921Z,9.74
2023-02-22T00:15:16.951Z,9.72
2023-02-22T00:17:47.447Z,9.68
2023-02-22T00:20:20.153Z,9.63
2023-02-22T00:22:51.929Z,9.59
2023-02-22T00:25:26.771Z,9.63
2023-02-22T00:27:58.237Z,9.59
2023-02-22T00:30:30.084Z,9.57
2023-02-22T00:33:00.897Z,9.56
2023-02-22T00:35:33.109Z,9.51
2023-02-22T00:38:04.417Z,9.45
2023-02-22T00:40:38.464Z,9.40
2023-02-22T00:43:08.721Z,9.33
2023-02-22T00:45:39.790Z,9.29
2023-02-22T00:48:11.664Z,9.19
2023-02-22T00:50:41.861Z,9.22
2023-02-22T00:53:12.081Z,9.18
2023-02-22T00:55:45.758Z,9.13
2023-02-22T00:58:15.837Z,9.07
2023-02-22T01:00:46.570Z,9.04
2023-02-22T01:03:20.522Z,9.01
2023-02-22T01:05:53.123Z,8.99
2023-02-22T01:08:25.213Z,8.95
2023-02-22T01:10:57.973Z,8.89
2023-02-22T01:13:29.444Z,8.70
2023-02-22T01:16:00.746Z,8.71
2023-02-22T01:18:37.803Z,8.66
2023-02-22T01:21:09.021Z,8.59
2023-02-22T01:23:39.068Z,8.55
2023-02-22T01:26:11.608Z,8.47
2023-02-22T01:28:42.400Z,8.36
2023-02-22T01:31:13.741Z,8.37
2023-02-22T01:33:47.464Z,8.33
2023-02-22T01:36:19.030Z,8.32
2023-02-22T01:38:49.582Z,8.31
2023-02-22T01:41:22.622Z,8.30
2023-02-22T01:43:53.065Z,8.32
2023-02-22T01:46:25.652Z,8.32
2023-02-22T01:49:01.328Z,8.34
2023-02-22T01:51:37.568Z,8.29
2023-02-22T01:54:13.745Z,8.22
2023-02-22T01:56:55.507Z,8.17
2023-02-22T01:59:26.590Z,8.12
2023-02-22T02:01:56.644Z,8.08
2023-02-22T02:04:28.138Z,8.08
2023-02-22T02:07:11.881Z,8.06
2023-02-22T02:09:50.778Z,7.96
2023-02-22T02:12:26.187Z,7.96
2023-02-22T02:14:56.373Z,7.98
2023-02-22T02:17:26.906Z,7.94
2023-02-22T02:20:04.532Z,7.85
2023-02-22T02:22:46.175Z,7.85
2023-02-22T02:25:51.782Z,7.83
2023-02-22T02:28:57.073Z,7.82
2023-02-22T02:32:10.482Z,7.81
2023-02-22T02:34:51.806Z,7.82
2023-02-22T02:37:31.362Z,7.82
2023-02-22T02:40:14.058Z,7.78
2023-02-22T02:42:49.640Z,7.76
2023-02-22T02:45:25.504Z,7.71
2023-02-22T02:47:59.982Z,7.63
2023-02-22T02:50:39.546Z,7.60
2023-02-22T02:53:12.241Z,7.58
2023-02-22T02:55:42.711Z,7.54
2023-02-22T02:58:20.464Z,7.46
2023-02-22T03:00:55.689Z,7.47
2023-02-22T03:03:47.777Z,7.44
2023-02-22T03:06:35.332Z,7.38
2023-02-22T03:09:14.174Z,7.35
2023-02-22T03:11:54.222Z,7.35
2023-02-22T03:14:33.544Z,7.33
2023-02-22T03:17:12.472Z,7.32
2023-02-22T03:19:50.461Z,7.29
2023-02-22T03:22:26.592Z,7.29
2023-02-22T03:25:08.987Z,7.25
2023-02-22T03:27:47.770Z,7.21
2023-02-22T03:30:24.101Z,7.16
2023-02-22T03:32:59.637Z,7.12
2023-02-22T03:35:36.158Z,7.07
2023-02-22T03:38:14.735Z,7.10
2023-02-22T03:40:48.911Z,7.10
2023-02-22T03:43:27.782Z,7.03
2023-02-22T03:46:03.891Z,7.03
2023-02-22T03:48:40.791Z,6.97
2023-02-22T03:51:11.511Z,6.95
2023-02-22T03:53:48.130Z,6.95
2023-02-22T03:56:27.027Z,6.94
2023-02-22T03:58:58.735Z,6.93
2023-02-22T04:01:28.610Z,6.91
2023-02-22T04:03:58.751Z,6.86
2023-02-22T04:06:29.251Z,6.83
2023-02-22T04:09:02.448Z,6.79
2023-02-22T04:11:33.314Z,6.78
2023-02-22T04:14:03.380Z,6.76
2023-02-22T04:16:33.715Z,6.74
2023-02-22T04:19:04.084Z,6.73
2023-02-22T04:21:34.280Z,6.69
2023-02-22T04:24:09.065Z,6.68
2023-02-22T04:26:39.055Z,6.63
2023-02-22T04:29:10.608Z,6.63
2023-02-22T04:31:42.837Z,6.54
2023-02-22T04:34:15.075Z,6.49
2023-02-22T04:36:47.182Z,6.45
2023-02-22T04:39:20.890Z,6.44
2023-02-22T04:41:50.988Z,6.46
2023-02-22T04:44:21.163Z,6.49
2023-02-22T04:46:51.089Z,6.52
2023-02-22T04:49:21.227Z,6.51
2023-02-22T04:51:52.433Z,6.52
2023-02-22T04:54:28.673Z,6.57
2023-02-22T04:57:00.052Z,6.69
2023-02-22T04:59:30.119Z,6.65
2023-02-22T05:02:03.476Z,6.87
2023-02-22T05:04:36.306Z,6.95
2023-02-22T05:07:07.249Z,6.96
2023-02-22T05:09:46.991Z,7.02
2023-02-22T05:12:17.037Z,7.04
2023-02-22T05:14:47.394Z,7.05
2023-02-22T05:17:17.301Z,7.05
2023-02-22T05:19:47.763Z,7.05
2023-02-22T05:22:17.805Z,7.04
2023-02-22T05:24:52.328Z,6.99
2023-02-22T05:27:22.735Z,6.93
2023-02-22T05:29:52.792Z,6.86
2023-02-22T05:32:22.684Z,6.80
2023-02-22T05:34:54.975Z,6.72
2023-02-22T05:37:24.840Z,6.67
2023-02-22T05:39:57.486Z,6.60
2023-02-22T05:42:27.350Z,6.52
2023-02-22T05:44:57.263Z,6.51
2023-02-22T05:47:27.233Z,6.48
2023-02-22T05:49:57.147Z,6.47
2023-02-22T05:52:27.182Z,6.44
2023-02-22T05:55:00.009Z,6.44
2023-02-22T05:57:29.892Z,6.44
2023-02-22T06:00:00.195Z,6.41
2023-02-22T06:02:30.525Z,6.36
2023-02-22T06:05:00.473Z,6.32
2023-02-22T06:07:30.351Z,6.31
2023-02-22T06:10:02.890Z,6.25
2023-02-22T06:12:32.716Z,6.26
2023-02-22T06:15:02.820Z,6.23
2023-02-22T06:17:32.783Z,6.21
2023-02-22T06:20:02.735Z,6.21
2023-02-22T06:22:41.111Z,6.22
2023-02-22T06:25:17.291Z,6.22
2023-02-22T06:27:47.453Z,6.07
2023-02-22T06:30:21.781Z,6.19
2023-02-22T06:32:52.361Z,6.23
2023-02-22T06:35:22.272Z,6.25
2023-02-22T06:37:52.260Z,6.31
2023-02-22T06:40:29.671Z,6.37
2023-02-22T06:43:01.033Z,6.41
2023-02-22T06:45:31.331Z,6.40
2023-02-22T06:48:04.694Z,6.42
2023-02-22T06:50:35.949Z,6.41
2023-02-22T06:53:06.554Z,6.46
2023-02-22T06:55:39.605Z,6.49
2023-02-22T06:58:09.456Z,6.56
2023-02-22T07:00:39.439Z,6.60
2023-02-22T07:03:15.116Z,6.72
2023-02-22T07:05:45.649Z,6.75
2023-02-22T07:08:17.202Z,6.77
2023-02-22T07:10:50.501Z,6.87
2023-02-22T07:13:20.449Z,6.94
2023-02-22T07:15:50.618Z,7.02
2023-02-22T07:18:20.756Z,7.11
2023-02-22T07:20:50.783Z,7.21
2023-02-22T07:23:21.957Z,7.31
2023-02-22T07:25:54.887Z,7.32
2023-02-22T07:28:25.182Z,7.41
2023-02-22T07:30:55.353Z,7.45
2023-02-22T07:33:27.026Z,7.55
2023-02-22T07:35:59.451Z,7.61
2023-02-22T07:38:29.408Z,7.62
2023-02-22T07:41:02.201Z,7.69
2023-02-22T07:43:33.228Z,7.79
2023-02-22T07:46:05.129Z,7.84
2023-02-22T07:48:35.643Z,7.92
2023-02-22T07:51:09.921Z,7.98
2023-02-22T07:53:40.906Z,8.03
2023-02-22T07:56:13.471Z,8.10
2023-02-22T07:58:43.425Z,8.20
2023-02-22T08:01:14.418Z,8.31
2023-02-22T08:03:48.005Z,8.39
2023-02-22T08:06:18.130Z,8.50
2023-02-22T08:08:49.374Z,8.57
2023-02-22T08:11:22.270Z,8.65
2023-02-22T08:13:56.662Z,8.70
2023-02-22T08:16:26.497Z,8.76
2023-02-22T08:18:57.304Z,8.85
2023-02-22T08:21:27.509Z,8.90
2023-02-22T08:23:59.285Z,8.98
2023-02-22T08:26:32.118Z,9.01
2023-02-22T08:29:02.100Z,9.06
2023-02-22T08:31:32.062Z,9.10
2023-02-22T08:34:02.088Z,9.20
2023-02-22T08:36:33.124Z,9.28
2023-02-22T08:39:12.095Z,9.39
2023-02-22T08:41:45.377Z,9.50
2023-02-22T08:44:18.330Z,9.48
2023-02-22T08:46:48.440Z,9.64
2023-02-22T08:49:18.398Z,9.73
2023-02-22T08:51:49.316Z,9.77
2023-02-22T08:54:20.176Z,9.73
2023-02-22T08:57:00.354Z,9.71
2023-02-22T08:59:33.501Z,9.71
2023-02-22T09:02:05.649Z,9.78
2023-02-22T09:04:35.575Z,9.76
2023-02-22T09:07:06.456Z,9.82
2023-02-22T09:09:36.352Z,9.84
2023-02-22T09:12:13.637Z,9.88
2023-02-22T09:14:43.712Z,9.94
2023-02-22T09:17:17.392Z,9.99
2023-02-22T09:19:48.285Z,10.00
2023-02-22T09:22:18.418Z,10.01
2023-02-22T09:24:48.440Z,10.05
2023-02-22T09:27:22.940Z,10.18
2023-02-22T09:29:53.197Z,10.25
2023-02-22T09:32:23.516Z,10.38
2023-02-22T09:34:54.353Z,10.43
2023-02-22T09:37:24.486Z,10.42
2023-02-22T09:39:54.539Z,10.49
2023-02-22T09:42:33.693Z,10.55
2023-02-22T09:45:12.882Z,10.55
2023-02-22T09:47:48.100Z,10.56
2023-02-22T09:50:20.605Z,10.62
2023-02-22T09:52:57.416Z,10.75
2023-02-22T09:55:36.950Z,10.86
2023-02-22T09:58:17.030Z,10.97
2023-02-22T10:00:51.651Z,11.04
2023-02-22T10:03:28.305Z,11.04
2023-02-22T10:06:03.820Z,11.07
2023-02-22T10:08:36.205Z,11.10
2023-02-22T10:11:25.750Z,11.13
2023-02-22T10:14:10.947Z,11.22
2023-02-22T10:16:46.436Z,11.17
2023-02-22T10:19:34.936Z,11.18
2023-02-22T10:22:27.238Z,11.28
2023-02-22T10:25:04.847Z,11.35
2023-02-22T10:27:38.741Z,11.34
2023-02-22T10:30:25.218Z,11.38
2023-02-22T10:33:01.503Z,11.45
2023-02-22T10:35:33.002Z,11.55
2023-02-22T10:38:10.519Z,11.60
2023-02-22T10:40:41.466Z,11.63
2023-02-22T10:43:12.683Z,11.69
2023-02-22T10:45:45.501Z,11.78
2023-02-22T10:48:18.741Z,11.80
2023-02-22T10:50:50.652Z,11.89
2023-02-22T10:53:21.527Z,11.97
2023-02-22T10:56:10.007Z,11.98
2023-02-22T10:58:49.307Z,12.00
2023-02-22T11:01:31.149Z,11.99
2023-02-22T11:04:10.351Z,11.97
2023-02-22T11:06:41.527Z,11.99
2023-02-22T11:09:14.962Z,12.01
2023-02-22T11:11:47.174Z,12.01
2023-02-22T11:14:29.675Z,12.05
2023-02-22T11:17:04.481Z,12.16
2023-02-22T11:19:38.460Z,12.31
2023-02-22T11:22:14.916Z,12.43
2023-02-22T11:24:58.424Z,12.40
2023-02-22T11:27:34.098Z,12.45
2023-02-22T11:30:29.920Z,12.53
2023-02-22T11:33:23.980Z,12.66
2023-02-22T11:35:55.910Z,12.75
2023-02-22T11:38:27.216Z,12.80
2023-02-22T11:41:24.332Z,12.87
2023-02-22T11:43:55.623Z,12.91
2023-02-22T11:46:29.196Z,12.94
2023-02-22T11:49:05.043Z,13.11
2023-02-22T11:52:06.744Z,13.00
2023-02-22T11:54:53.494Z,12.91
2023-02-22T11:57:36.993Z,12.91
2023-02-22T12:00:24.646Z,12.91
2023-02-22T12:03:16.470Z,12.90
2023-02-22T12:06:09.355Z,12.92
2023-02-22T12:08:55.702Z,13.01
2023-02-22T12:11:34.050Z,13.01
2023-02-22T12:14:16.315Z,12.92
2023-02-22T12:17:08.409Z,12.84
2023-02-22T12:19:46.167Z,12.82
2023-02-22T12:22:25.766Z,12.82
2023-02-22T12:25:09.395Z,12.81
2023-02-22T12:27:45.284Z,12.78
2023-02-22T12:30:19.203Z,12.80
2023-02-22T12:32:53.819Z,12.82
2023-02-22T12:35:27.688Z,12.83
2023-02-22T12:38:13.074Z,12.88
2023-02-22T12:40:54.080Z,12.83
2023-02-22T12:43:30.343Z,12.69
2023-02-22T12:46:06.053Z,12.85
2023-02-22T12:48:45.055Z,12.88
2023-02-22T12:51:28.355Z,12.92
2023-02-22T12:54:12.036Z,12.94
2023-02-22T12:56:47.607Z,12.96
2023-02-22T12:59:24.613Z,13.04
2023-02-22T13:01:58.813Z,13.09
2023-02-22T13:04:31.857Z,13.14
2023-02-22T13:07:21.984Z,13.17
2023-02-22T13:10:19.270Z,13.30
2023-02-22T13:12:57.554Z,13.41
2023-02-22T13:15:34.075Z,13.46
2023-02-22T13:18:13.450Z,13.50
2023-02-22T13:20:50.561Z,13.53
2023-02-22T13:23:33.949Z,13.59
2023-02-22T13:26:13.404Z,13.70
2023-02-22T13:28:49.556Z,13.76
2023-02-22T13:31:40.034Z,13.70
2023-02-22T13:34:41.812Z,13.62
2023-02-22T13:37:39.236Z,13.65
2023-02-22T13:40:33.654Z,13.70
2023-02-22T13:43:23.890Z,13.83
2023-02-22T13:46:24.952Z,13.84
2023-02-22T13:49:28.237Z,13.83
2023-02-22T13:52:04.348Z,13.85
2023-02-22T13:54:44.952Z,13.95
2023-02-22T13:57:23.205Z,13.94
2023-02-22T14:00:41.496Z,14.00
2023-02-22T14:03:36.260Z,14.00
2023-02-22T14:06:07.692Z,14.00
2023-02-22T14:08:45.641Z,13.92
2023-02-22T14:11:54.341Z,13.82
2023-02-22T14:14:24.898Z,13.78
2023-02-22T14:17:33.180Z,13.80
2023-02-22T14:20:30.256Z,13.78
2023-02-22T14:23:01.616Z,13.80
2023-02-22T14:25:43.569Z,13.80
2023-02-22T14:28:46.311Z,13.88
2023-02-22T14:31:33.623Z,13.90
2023-02-22T14:34:09.297Z,13.93
2023-02-22T14:36:52.646Z,13.81
2023-02-22T14:39:32.294Z,13.94
2023-02-22T14:42:09.103Z,13.86
2023-02-22T14:44:51.282Z,13.96
2023-02-22T14:47:28.317Z,13.98
2023-02-22T14:50:05.548Z,13.92
2023-02-22T14:52:43.547Z,13.96
2023-02-22T14:55:21.477Z,13.96
2023-02-22T14:58:06.432Z,13.97
2023-02-22T15:00:43.328Z,13.92
2023-02-22T15:03:21.871Z,13.91
2023-02-22T15:05:53.527Z,13.88
2023-02-22T15:08:28.635Z,13.86
2023-02-22T15:10:58.996Z,13.84
2023-02-22T15:13:33.027Z,13.81
2023-02-22T15:16:08.082Z,13.80
2023-02-22T15:18:43.497Z,13.78
2023-02-22T15:21:16.811Z,13.75
2023-02-22T15:23:52.199Z,13.74
2023-02-22T15:26:28.528Z,13.69
2023-02-22T15:28:59.466Z,13.72
2023-02-22T15:31:33.625Z,13.70
2023-02-22T15:34:13.218Z,13.64
2023-02-22T15:36:43.775Z,13.58
2023-02-22T15:39:27.261Z,13.56
2023-02-22T15:42:09.470Z,13.52
2023-02-22T15:44:43.101Z,13.47
2023-02-22T15:47:15.935Z,13.42
2023-02-22T15:49:45.856Z,13.37
2023-02-22T15:52:22.509Z,13.33
2023-02-22T15:54:55.508Z,13.28
2023-02-22T15:57:27.555Z,13.21
2023-02-22T15:59:59.993Z,13.18
2023-02-22T16:02:41.827Z,13.13
2023-02-22T16:05:14.630Z,13.07
2023-02-22T16:07:48.119Z,13.01
2023-02-22T16:10:28.107Z,12.98
2023-02-22T16:13:25.707Z,12.95
2023-02-22T16:16:03.605Z,12.88
2023-02-22T16:18:36.407Z,12.81
2023-02-22T16:21:13.225Z,12.74
2023-02-22T16:23:51.271Z,12.67
2023-02-22T16:26:29.717Z,12.59
2023-02-22T16:29:01.596Z,12.54
2023-02-22T16:31:33.990Z,12.47
2023-02-22T16:34:05.261Z,12.43
2023-02-22T16:36:43.811Z,12.37
2023-02-22T16:39:21.055Z,12.34
2023-02-22T16:41:54.682Z,12.30
2023-02-22T16:44:25.920Z,12.26
2023-02-22T16:46:59.897Z,12.20
2023-02-22T16:49:30.512Z,12.17
2023-02-22T16:52:03.373Z,12.15
2023-02-22T16:54:36.891Z,12.13
2023-02-22T16:57:12.847Z,12.08
2023-02-22T16:59:42.782Z,12.05
2023-02-22T17:02:16.461Z,12.01
2023-02-22T17:04:50.068Z,11.93
2023-02-22T17:07:23.963Z,11.94
2023-02-22T17:09:53.800Z,11.91
2023-02-22T17:12:26.297Z,11.88
2023-02-22T17:14:56.192Z,11.86
2023-02-22T17:17:26.516Z,11.77
2023-02-22T17:19:56.591Z,11.81
2023-02-22T17:22:26.534Z,11.75
2023-02-22T17:24:56.490Z,11.57
2023-02-22T17:27:28.971Z,11.67
2023-02-22T17:29:59.371Z,11.63
2023-02-22T17:32:29.603Z,11.60
2023-02-22T17:34:59.858Z,11.55
2023-02-22T17:37:29.788Z,11.53
2023-02-22T17:39:59.717Z,11.51
2023-02-22T17:42:32.465Z,11.46
2023-02-22T17:45:02.552Z,11.48
2023-02-22T17:47:33.427Z,11.45
2023-02-22T17:50:03.667Z,11.45
2023-02-22T17:52:34.420Z,11.41
2023-02-22T17:55:07.329Z,11.06
2023-02-22T18:29:56.933Z,10.94
2023-02-22T18:32:30.948Z,10.98
2023-02-22T18:35:02.582Z,10.95
2023-02-22T18:37:32.984Z,10.96
2023-02-22T18:40:10.298Z,10.94
2023-02-22T18:42:41.945Z,10.89
2023-02-22T18:45:15.193Z,10.88
2023-02-22T18:47:50.017Z,10.89
2023-02-22T18:50:20.235Z,10.76
2023-02-22T18:52:50.111Z,10.83
2023-02-22T18:55:24.060Z,10.77
2023-02-22T18:57:57.982Z,10.78
2023-02-22T19:00:31.990Z,10.75
2023-02-22T19:03:02.021Z,10.72
2023-02-22T19:05:33.380Z,10.69
2023-02-22T19:08:11.398Z,10.67
2023-02-22T19:10:41.562Z,10.64
2023-02-22T19:13:12.191Z,10.58
2023-02-22T19:15:45.340Z,10.54
2023-02-22T19:18:15.944Z,10.52
2023-02-22T19:20:47.571Z,10.48
2023-02-22T19:23:17.664Z,10.39
2023-02-22T19:25:50.344Z,10.39
2023-02-22T19:28:20.742Z,10.33
2023-02-22T19:30:53.265Z,10.32
2023-02-22T19:33:26.132Z,10.30
2023-02-22T19:35:56.732Z,10.24
2023-02-22T19:38:26.805Z,10.22
2023-02-22T19:40:57.935Z,10.20
2023-02-22T19:43:28.652Z,10.20
2023-02-22T19:46:09.088Z,10.17
2023-02-22T19:48:40.269Z,10.14
2023-02-22T19:51:13.249Z,10.10
2023-02-22T19:53:44.632Z,9.96
2023-02-22T19:56:16.470Z,10.00
2023-02-22T19:58:48.446Z,10.06
2023-02-22T20:01:24.107Z,9.99
2023-02-22T20:03:55.044Z,10.02
2023-02-22T20:06:28.471Z,10.01
2023-02-22T20:09:01.481Z,9.99
2023-02-22T20:11:33.340Z,9.77
2023-02-22T20:14:06.637Z,9.94
2023-02-22T20:16:46.244Z,9.92
2023-02-22T20:19:20.735Z,9.73
2023-02-22T20:21:52.600Z,9.81
2023-02-22T20:24:22.999Z,9.58
2023-02-22T20:26:56.636Z,9.82
2023-02-22T20:29:35.975Z,9.78
2023-02-22T20:32:15.434Z,9.69
2023-02-22T20:34:51.842Z,9.68
2023-02-22T20:37:22.540Z,9.71
2023-02-22T20:39:54.057Z,9.60
2023-02-22T20:42:24.406Z,9.57
2023-02-22T20:44:54.958Z,9.38
2023-02-22T20:47:28.374Z,9.68
2023-02-22T20:49:58.495Z,9.68
2023-02-22T20:52:28.577Z,9.66
2023-02-22T20:54:59.200Z,9.67
2023-02-22T20:57:29.591Z,9.66
2023-02-22T21:00:00.642Z,9.63
2023-02-22T21:02:33.975Z,9.64
2023-02-22T21:05:04.375Z,9.64
2023-02-22T21:07:34.968Z,9.62
2023-02-22T21:10:06.292Z,9.52
2023-02-22T21:12:45.242Z,9.43
2023-02-22T21:15:27.460Z,9.33
2023-02-22T21:18:07.172Z,9.64
2023-02-22T21:20:55.336Z,9.62
2023-02-22T21:26:41.665Z,8.83
2023-02-22T21:29:23.976Z,9.60
2023-02-22T21:32:22.631Z,9.17
2023-02-22T21:41:45.204Z,9.56
2023-02-22T21:44:16.669Z,9.37
2023-02-22T21:46:50.882Z,9.46
2023-02-22T21:49:23.048Z,9.41
2023-02-22T21:51:57.947Z,8.64
2023-02-22T21:54:35.219Z,8.99
2023-02-22T21:57:09.721Z,8.98
2023-02-22T21:59:47.887Z,9.28
2023-02-22T22:02:26.616Z,9.22
2023-02-22T22:05:03.618Z,8.45
2023-02-22T22:07:57.121Z,8.76
2023-02-22T22:11:01.637Z,8.87
2023-02-22T22:13:43.639Z,9.10
2023-02-22T22:19:27.034Z,8.35
2023-02-22T22:22:06.471Z,9.04
2023-02-22T22:27:57.541Z,8.98
2023-02-22T22:30:36.100Z,8.93
2023-02-22T22:36:44.318Z,8.92
2023-02-22T22:39:27.511Z,8.49
2023-02-22T22:42:06.017Z,8.91
2023-02-22T22:45:03.220Z,8.92
2023-02-22T22:51:33.809Z,8.91
2023-02-22T22:54:29.554Z,8.87
2023-02-22T22:57:31.829Z,8.00
2023-02-22T23:03:31.070Z,8.74
2023-02-22T23:06:34.949Z,8.55
2023-02-22T23:09:22.589Z,8.73
2023-02-22T23:12:11.801Z,8.41
2023-02-22T23:14:46.287Z,8.10
2023-02-22T23:17:32.171Z,8.02
2023-02-22T23:20:11.449Z,8.63
2023-02-22T23:22:47.845Z,8.60
2023-02-22T23:25:20.228Z,8.58
2023-02-22T23:27:51.825Z,8.47
2023-02-22T23:30:22.668Z,8.56
2023-02-22T23:32:57.227Z,8.57
2023-02-22T23:35:27.801Z,8.38
2023-02-22T23:37:58.945Z,8.50
2023-02-22T23:40:30.165Z,8.31
2023-02-22T23:43:04.288Z,8.33
2023-02-22T23:45:38.875Z,8.37
2023-02-22T23:48:12.904Z,8.36
2023-02-22T23:50:44.781Z,8.52
2023-02-22T23:53:15.961Z,8.48
2023-02-22T23:55:47.163Z,8.52
2023-02-22T23:58:18.650Z,8.36
